Time;durP1;ratioP1;P1;durP2;ratioP2;P2;SDS_P1;SDS_P2;PMS_P1;PMS_P2;Temp;Humidity;BMP_temperature;BMP_pressure;BME280_temperature;BME280_humidity;BME280_pressure;Samples;Min_cycle;Max_cycle;Signal;HPM_P1;HPM_P2
2023/08/09 00:00:32;;;;;;;18.90;14.00;;;;;21.80;100063.00;;;;2072137;28;20221;-72
2023/08/09 00:01:32;;;;;;;18.80;13.85;;;;;21.80;100062.00;;;;2065373;28;20249;-72
2023/08/09 00:02:33;;;;;;;16.87;13.40;;;;;21.80;100073.00;;;;2066944;28;20306;-72
2023/08/09 00:03:33;;;;;;;18.43;13.57;;;;;21.80;100073.00;;;;2066652;28;20319;-72
2023/08/09 00:04:33;;;;;;;18.50;14.20;;;;;21.80;100065.00;;;;2058400;28;20819;-72
2023/08/09 00:05:34;;;;;;;17.13;13.53;;;;;21.80;100078.00;;;;2070094;28;20210;-72
2023/08/09 00:06:34;;;;;;;19.40;13.07;;;;;21.80;100073.00;;;;2064215;28;20218;-72
2023/08/09 00:07:34;;;;;;;14.70;12.37;;;;;21.80;100074.00;;;;2063969;28;20237;-72
2023/08/09 00:08:35;;;;;;;15.60;11.77;;;;;21.80;100073.00;;;;2064872;28;20222;-72
2023/08/09 00:09:35;;;;;;;16.03;13.33;;;;;21.80;100069.00;;;;2055027;28;20218;-72
2023/08/09 00:10:35;;;;;;;14.80;11.47;;;;;21.80;100074.00;;;;2070633;28;20209;-72
2023/08/09 00:11:36;;;;;;;15.43;12.10;;;;;21.80;100074.00;;;;2066242;28;20231;-72
2023/08/09 00:12:36;;;;;;;16.60;11.23;;;;;21.80;100066.00;;;;2064035;28;20304;-72
2023/08/09 00:13:36;;;;;;;15.93;11.93;;;;;21.80;100074.00;;;;2064369;28;20246;-72
2023/08/09 00:14:37;;;;;;;14.77;11.97;;;;;21.80;100075.00;;;;2061401;28;20238;-72
2023/08/09 00:15:37;;;;;;;14.20;11.53;;;;;21.80;100081.00;;;;2075753;28;20329;-72
2023/08/09 00:16:37;;;;;;;12.60;10.60;;;;;21.80;100088.00;;;;2064511;28;20218;-72
2023/08/09 00:17:38;;;;;;;12.77;11.00;;;;;21.80;100085.00;;;;2069627;28;20241;-72
2023/08/09 00:18:38;;;;;;;13.13;10.03;;;;;21.80;100088.00;;;;2064319;28;20789;-72
2023/08/09 00:19:38;;;;;;;14.07;10.30;;;;;21.80;100092.00;;;;2054258;28;20928;-72
2023/08/09 00:20:39;;;;;;;11.63;9.30;;;;;21.80;100086.00;;;;2063992;28;20261;-72
2023/08/09 00:21:39;;;;;;;12.10;10.20;;;;;21.80;100085.00;;;;2064663;28;20222;-72
2023/08/09 00:22:40;;;;;;;12.90;9.70;;;;;21.80;100092.00;;;;2064774;28;20222;-72
2023/08/09 00:23:41;;;;;;;14.63;10.50;;;;;21.80;100097.00;;;;2060148;28;20679;-72
2023/08/09 00:24:41;;;;;;;11.20;9.37;;;;;21.80;100102.00;;;;2067685;28;20472;-72
2023/08/09 00:25:41;;;;;;;15.23;10.80;;;;;21.80;100102.00;;;;2068189;28;20246;-72
2023/08/09 00:26:41;;;;;;;11.27;9.00;;;;;21.80;100106.00;;;;2063812;28;20227;-72
2023/08/09 00:27:42;;;;;;;10.57;8.83;;;;;21.80;100105.00;;;;2064094;28;20227;-72
2023/08/09 00:28:42;;;;;;;11.20;9.20;;;;;21.80;100104.00;;;;2054363;28;20219;-72
2023/08/09 00:29:43;;;;;;;9.70;8.70;;;;;21.80;100104.00;;;;2064573;28;20250;-72
2023/08/09 00:30:43;;;;;;;10.47;8.60;;;;;21.80;100101.00;;;;2063389;28;20281;-72
2023/08/09 00:31:44;;;;;;;11.43;8.67;;;;;21.80;100098.00;;;;2063886;28;20214;-72
2023/08/09 00:32:44;;;;;;;11.07;8.70;;;;;21.80;100100.00;;;;2063958;28;20377;-72
2023/08/09 00:33:45;;;;;;;10.60;8.40;;;;;21.80;100105.00;;;;2055003;28;20235;-72
2023/08/09 00:34:45;;;;;;;9.70;8.53;;;;;21.80;100107.00;;;;2063641;28;20227;-72
2023/08/09 00:35:45;;;;;;;9.27;7.93;;;;;21.80;100106.00;;;;2064381;28;20520;-72
2023/08/09 00:36:47;;;;;;;9.93;7.60;;;;;21.80;100106.00;;;;2064498;28;20219;-72
2023/08/09 00:37:48;;;;;;;10.20;8.60;;;;;21.80;100096.00;;;;2063150;28;20239;-72
2023/08/09 00:38:49;;;;;;;10.00;7.87;;;;;21.80;100098.00;;;;2055532;28;20238;-72
2023/08/09 00:39:50;;;;;;;9.60;8.00;;;;;21.80;100111.00;;;;2059423;28;20584;-72
2023/08/09 00:40:51;;;;;;;10.23;7.85;;;;;21.80;100116.00;;;;2063705;28;20234;-72
2023/08/09 00:41:51;;;;;;;9.43;7.90;;;;;21.80;100112.00;;;;2061700;28;20736;-72
2023/08/09 00:42:51;;;;;;;7.93;6.70;;;;;21.80;100108.00;;;;2064569;28;20218;-72
2023/08/09 00:43:51;;;;;;;8.20;7.00;;;;;21.80;100104.00;;;;2054987;28;20741;-72
2023/08/09 00:44:52;;;;;;;9.20;7.10;;;;;21.80;100079.00;;;;2062216;28;20222;-72
2023/08/09 00:45:52;;;;;;;8.13;7.20;;;;;21.80;100068.00;;;;2064519;28;20219;-72
2023/08/09 00:46:53;;;;;;;8.50;6.97;;;;;21.80;100110.00;;;;2063164;28;20233;-72
2023/08/09 00:47:53;;;;;;;7.23;5.77;;;;;21.80;100118.00;;;;2062641;28;20270;-72
2023/08/09 00:48:53;;;;;;;8.20;6.47;;;;;21.80;100107.00;;;;2055280;28;20233;-72
2023/08/09 00:49:54;;;;;;;8.40;6.57;;;;;21.80;100108.00;;;;2061616;28;20560;-73
2023/08/09 00:50:54;;;;;;;9.03;6.23;;;;;21.80;100105.00;;;;2055864;28;20797;-73
2023/08/09 00:51:54;;;;;;;9.20;7.27;;;;;21.80;100091.00;;;;2063191;28;20230;-72
2023/08/09 00:52:55;;;;;;;7.77;6.30;;;;;21.80;100062.00;;;;2064521;28;20215;-72
2023/08/09 00:53:55;;;;;;;7.30;5.80;;;;;21.80;100103.00;;;;2045534;28;20239;-72
2023/08/09 00:54:55;;;;;;;6.90;5.33;;;;;21.80;100108.00;;;;2055472;28;20597;-72
2023/08/09 00:55:56;;;;;;;9.07;6.63;;;;;21.80;100109.00;;;;2062783;28;20604;-72
2023/08/09 00:56:56;;;;;;;7.10;5.60;;;;;21.70;100061.00;;;;2063707;28;20223;-72
2023/08/09 00:57:56;;;;;;;7.03;6.10;;;;;21.80;100107.00;;;;2063872;28;20226;-72
2023/08/09 00:58:57;;;;;;;6.93;6.20;;;;;21.80;100111.00;;;;2053463;28;20227;-72
2023/08/09 00:59:57;;;;;;;8.33;6.00;;;;;21.80;100106.00;;;;2063817;28;20227;-72
2023/08/09 01:00:57;;;;;;;6.80;5.20;;;;;21.80;100107.00;;;;2055641;28;20251;-72
2023/08/09 01:01:58;;;;;;;6.40;5.10;;;;;21.80;100103.00;;;;2064198;28;20229;-72
2023/08/09 01:02:58;;;;;;;6.00;5.30;;;;;21.80;100107.00;;;;2064240;28;20298;-72
2023/08/09 01:03:59;;;;;;;7.03;4.90;;;;;21.70;100105.00;;;;2053904;28;20210;-72
2023/08/09 01:04:59;;;;;;;7.57;4.73;;;;;21.70;100099.00;;;;2055856;28;20247;-72
2023/08/09 01:06:20;;;;;;;6.03;5.20;;;;;21.80;100108.00;;;;2051517;28;20222;-72
2023/08/09 01:07:45;;;;;;;7.70;5.32;;;;;21.80;100093.00;;;;2050751;28;20251;-72
2023/08/09 01:09:08;;;;;;;6.57;4.97;;;;;21.80;100112.00;;;;2040321;28;20223;-72
2023/08/09 01:10:11;;;;;;;5.95;5.15;;;;;21.80;100117.00;;;;2057797;28;20733;-72
2023/08/09 01:11:24;;;;;;;5.80;4.22;;;;;21.80;100123.00;;;;2062532;28;20714;-72
2023/08/09 01:12:27;;;;;;;7.25;4.93;;;;;21.80;100126.00;;;;2063478;28;20577;-72
2023/08/09 01:13:28;;;;;;;6.25;5.03;;;;;21.80;100128.00;;;;2047197;28;20224;-72
2023/08/09 01:14:28;;;;;;;5.47;4.23;;;;;21.80;100129.00;;;;2045880;28;20302;-72
2023/08/09 01:15:31;;;;;;;6.03;5.07;;;;;21.70;100128.00;;;;2059300;28;20215;-72
2023/08/09 01:16:31;;;;;;;5.88;4.53;;;;;21.70;100111.00;;;;2055806;28;20219;-72
2023/08/09 01:17:32;;;;;;;5.10;4.10;;;;;21.70;100123.00;;;;2055104;28;21997;-72
2023/08/09 01:18:32;;;;;;;5.00;3.97;;;;;21.70;100120.00;;;;2055496;28;20203;-72
2023/08/09 01:19:41;;;;;;;5.37;4.10;;;;;21.70;100114.00;;;;2053394;28;20219;-72
2023/08/09 01:20:42;;;;;;;4.15;3.65;;;;;21.80;100099.00;;;;2063242;28;20223;-72
2023/08/09 01:21:43;;;;;;;5.90;4.90;;;;;21.80;100127.00;;;;2063503;28;20729;-72
2023/08/09 01:22:50;;;;;;;5.45;4.40;;;;;21.70;100130.00;;;;2062699;28;20246;-72
2023/08/09 01:23:51;;;;;;;5.45;3.65;;;;;21.70;100130.00;;;;2053682;28;20222;-72
2023/08/09 01:24:51;;;;;;;4.83;4.33;;;;;21.70;100133.00;;;;2054736;28;20247;-72
2023/08/09 01:25:51;;;;;;;4.97;3.90;;;;;21.80;100131.00;;;;2064299;28;20311;-72
2023/08/09 01:26:52;;;;;;;4.20;3.60;;;;;21.70;100134.00;;;;2063424;28;20222;-72
2023/08/09 01:27:52;;;;;;;6.27;3.70;;;;;21.70;100130.00;;;;2064347;28;20233;-72
2023/08/09 01:28:52;;;;;;;4.87;3.70;;;;;21.70;100124.00;;;;2054468;28;20230;-72
2023/08/09 01:29:53;;;;;;;4.43;3.57;;;;;21.80;100135.00;;;;2062927;28;20226;-72
2023/08/09 01:30:53;;;;;;;4.20;3.00;;;;;21.80;100135.00;;;;2062358;28;20233;-72
2023/08/09 01:31:53;;;;;;;3.80;3.20;;;;;21.70;100122.00;;;;2063374;28;20227;-72
2023/08/09 01:32:54;;;;;;;4.83;3.70;;;;;21.70;100139.00;;;;2055393;28;20228;-72
2023/08/09 01:33:54;;;;;;;5.17;3.97;;;;;21.70;100126.00;;;;2029377;29;20225;-72
2023/08/09 01:34:54;;;;;;;4.33;3.63;;;;;21.70;100117.00;;;;2054968;28;20275;-73
2023/08/09 01:36:01;;;;;;;4.03;3.27;;;;;21.70;100131.00;;;;2054881;28;20270;-73
2023/08/09 01:37:05;;;;;;;3.70;3.40;;;;;21.70;100099.00;;;;2053568;28;20636;-72
2023/08/09 01:38:13;;;;;;;3.88;3.15;;;;;21.70;100130.00;;;;2046303;28;20219;-72
2023/08/09 01:39:16;;;;;;;4.25;3.60;;;;;21.70;100140.00;;;;2049837;28;20246;-72
2023/08/09 01:40:17;;;;;;;4.10;3.30;;;;;21.70;100143.00;;;;2061266;28;20691;-72
2023/08/09 01:41:17;;;;;;;3.37;3.07;;;;;21.70;100141.00;;;;2057027;28;20203;-72
2023/08/09 01:42:18;;;;;;;4.30;3.30;;;;;21.70;100148.00;;;;2051014;28;20537;-72
2023/08/09 01:43:18;;;;;;;3.83;2.80;;;;;21.70;100152.00;;;;2054854;28;20219;-72
2023/08/09 01:44:18;;;;;;;3.87;3.23;;;;;21.70;100158.00;;;;2045657;28;20230;-72
2023/08/09 01:45:19;;;;;;;3.43;2.80;;;;;21.70;100154.00;;;;2050388;28;20239;-72
2023/08/09 01:46:19;;;;;;;3.20;2.83;;;;;21.70;100139.00;;;;2046497;29;20220;-72
2023/08/09 01:47:19;;;;;;;3.50;3.00;;;;;21.70;100156.00;;;;2047340;29;20220;-72
2023/08/09 01:48:21;;;;;;;3.70;2.93;;;;;21.70;100160.00;;;;2054731;28;20694;-72
2023/08/09 01:49:22;;;;;;;3.50;3.13;;;;;21.70;100165.00;;;;2059186;28;20245;-72
2023/08/09 01:50:26;;;;;;;3.58;3.03;;;;;21.70;100159.00;;;;2068443;28;20221;-72
2023/08/09 01:51:27;;;;;;;4.40;3.17;;;;;21.70;100156.00;;;;2062609;28;20682;-72
2023/08/09 01:52:27;;;;;;;3.13;2.67;;;;;21.70;100159.00;;;;2063496;28;20311;-72
2023/08/09 01:53:28;;;;;;;2.57;2.27;;;;;21.70;100159.00;;;;2063126;28;20253;-72
2023/08/09 01:54:28;;;;;;;3.45;2.83;;;;;21.70;100153.00;;;;2054032;28;20274;-72
2023/08/09 01:55:29;;;;;;;3.30;2.73;;;;;21.70;100114.00;;;;2063095;28;20298;-72
2023/08/09 01:56:30;;;;;;;4.37;2.50;;;;;21.70;100133.00;;;;2062976;28;20221;-72
2023/08/09 01:57:30;;;;;;;3.30;2.50;;;;;21.70;100144.00;;;;2054714;28;20233;-72
2023/08/09 01:58:31;;;;;;;2.50;2.30;;;;;21.70;100140.00;;;;2063312;28;20215;-72
2023/08/09 01:59:31;;;;;;;3.60;2.37;;;;;21.70;100146.00;;;;2050816;28;20222;-72
2023/08/09 02:00:32;;;;;;;3.90;2.80;;;;;21.70;100138.00;;;;2060743;28;20254;-72
2023/08/09 02:01:32;;;;;;;3.20;2.47;;;;;21.70;100145.00;;;;2064309;28;20215;-72
2023/08/09 02:02:32;;;;;;;2.83;2.47;;;;;21.70;100145.00;;;;2063376;28;20218;-72
2023/08/09 02:03:33;;;;;;;2.03;1.83;;;;;21.70;100138.00;;;;2064261;28;20227;-72
2023/08/09 02:04:33;;;;;;;3.20;2.20;;;;;21.70;100148.00;;;;2045015;28;20214;-72
2023/08/09 02:05:33;;;;;;;2.50;2.27;;;;;21.70;100146.00;;;;2063860;28;20219;-72
2023/08/09 02:06:34;;;;;;;3.23;2.50;;;;;21.70;100150.00;;;;2063509;28;20206;-72
2023/08/09 02:07:34;;;;;;;2.90;2.07;;;;;21.70;100140.00;;;;2065814;28;20203;-72
2023/08/09 02:08:34;;;;;;;3.03;2.03;;;;;21.70;100148.00;;;;2055521;28;20222;-72
2023/08/09 02:09:35;;;;;;;3.83;2.60;;;;;21.70;100124.00;;;;2036158;28;20223;-72
2023/08/09 02:10:35;;;;;;;3.80;2.43;;;;;21.70;100148.00;;;;2062973;28;20645;-72
2023/08/09 02:11:35;;;;;;;2.73;1.93;;;;;21.70;100152.00;;;;2063407;28;20763;-72
2023/08/09 02:12:39;;;;;;;2.60;1.80;;;;;21.70;100152.00;;;;2063899;28;20211;-72
2023/08/09 02:13:39;;;;;;;2.85;2.13;;;;;21.70;100140.00;;;;2062365;28;20215;-72
2023/08/09 02:14:40;;;;;;;2.63;2.03;;;;;21.70;100152.00;;;;2053135;28;20219;-72
2023/08/09 02:15:40;;;;;;;2.10;1.70;;;;;21.70;100150.00;;;;2063766;28;20217;-72
2023/08/09 02:16:40;;;;;;;2.50;1.63;;;;;21.70;100147.00;;;;2062992;28;20281;-72
2023/08/09 02:17:42;;;;;;;2.13;1.73;;;;;21.70;100160.00;;;;2069248;28;20615;-72
2023/08/09 02:18:43;;;;;;;3.10;1.98;;;;;21.70;100161.00;;;;2055106;28;20317;-72
2023/08/09 02:19:44;;;;;;;2.77;1.97;;;;;21.70;100168.00;;;;2063638;28;20207;-72
2023/08/09 02:20:44;;;;;;;2.20;2.00;;;;;21.70;100171.00;;;;2062843;28;20473;-72
2023/08/09 02:21:44;;;;;;;2.83;1.93;;;;;21.70;100171.00;;;;2063883;28;20310;-72
2023/08/09 02:22:45;;;;;;;2.10;1.60;;;;;21.70;100181.00;;;;2063742;28;20223;-72
2023/08/09 02:23:45;;;;;;;2.37;1.80;;;;;21.70;100176.00;;;;2053538;28;20221;-72
2023/08/09 02:24:46;;;;;;;2.83;1.90;;;;;21.70;100180.00;;;;2063495;28;20246;-72
2023/08/09 02:25:46;;;;;;;2.43;1.90;;;;;21.70;100184.00;;;;2062777;28;20678;-72
2023/08/09 02:26:47;;;;;;;2.00;1.50;;;;;21.70;100176.00;;;;2063690;28;20222;-72
2023/08/09 02:27:47;;;;;;;2.40;1.77;;;;;21.70;100180.00;;;;2062915;28;20238;-72
2023/08/09 02:28:48;;;;;;;2.47;1.90;;;;;21.70;100173.00;;;;2054117;28;20230;-72
2023/08/09 02:29:49;;;;;;;2.38;1.63;;;;;21.70;100165.00;;;;2063478;28;20715;-72
2023/08/09 02:30:49;;;;;;;2.30;1.37;;;;;21.70;100162.00;;;;2063215;28;20211;-72
2023/08/09 02:31:49;;;;;;;2.63;1.80;;;;;21.70;100171.00;;;;2063402;28;20229;-72
2023/08/09 02:32:50;;;;;;;1.60;1.40;;;;;21.70;100163.00;;;;2062878;28;20227;-72
2023/08/09 02:33:50;;;;;;;1.73;1.50;;;;;21.70;100157.00;;;;2054046;28;20236;-72
2023/08/09 02:34:50;;;;;;;2.43;1.40;;;;;21.70;100117.00;;;;2062687;28;20242;-72
2023/08/09 02:35:55;;;;;;;1.87;1.57;;;;;21.70;100152.00;;;;2063540;28;20225;-72
2023/08/09 02:36:56;;;;;;;1.80;1.45;;;;;21.70;100149.00;;;;2063660;28;20301;-72
2023/08/09 02:37:56;;;;;;;2.50;1.60;;;;;21.70;100148.00;;;;2063052;28;20342;-72
2023/08/09 02:38:56;;;;;;;1.83;1.40;;;;;21.70;100151.00;;;;2054036;28;20222;-72
2023/08/09 02:39:57;;;;;;;3.80;1.47;;;;;21.70;100153.00;;;;2063009;28;20253;-72
2023/08/09 02:40:57;;;;;;;2.90;1.63;;;;;21.70;100153.00;;;;2062888;28;20226;-72
2023/08/09 02:41:59;;;;;;;2.93;1.60;;;;;21.70;100154.00;;;;2062199;28;20245;-72
2023/08/09 02:42:59;;;;;;;2.38;1.67;;;;;21.70;100155.00;;;;2063660;28;20589;-72
2023/08/09 02:44:00;;;;;;;1.77;1.27;;;;;21.70;100155.00;;;;2053933;28;20225;-72
2023/08/09 02:45:00;;;;;;;1.70;1.30;;;;;21.70;100156.00;;;;2056224;28;20247;-72
2023/08/09 02:46:00;;;;;;;1.97;1.47;;;;;21.70;100163.00;;;;2070902;28;20210;-72
2023/08/09 02:47:01;;;;;;;2.10;1.33;;;;;21.70;100147.00;;;;2063257;28;20224;-72
2023/08/09 02:48:01;;;;;;;4.50;1.30;;;;;21.70;100159.00;;;;2062979;28;20235;-72
2023/08/09 02:49:02;;;;;;;1.37;1.23;;;;;21.70;100161.00;;;;2052008;28;20301;-72
2023/08/09 02:50:06;;;;;;;1.52;1.20;;;;;21.70;100164.00;;;;2071054;28;20217;-72
2023/08/09 02:51:06;;;;;;;2.85;1.90;;;;;21.70;100169.00;;;;2067825;28;20219;-72
2023/08/09 02:52:06;;;;;;;1.40;1.23;;;;;21.70;100169.00;;;;2062926;28;20222;-72
2023/08/09 02:53:08;;;;;;;1.40;1.10;;;;;21.60;100169.00;;;;2063577;28;20218;-72
2023/08/09 02:54:08;;;;;;;4.18;1.30;;;;;21.60;100171.00;;;;2053075;28;20764;-72
2023/08/09 02:55:12;;;;;;;3.43;1.40;;;;;21.70;100170.00;;;;2063240;28;20242;-72
2023/08/09 02:56:13;;;;;;;2.13;1.25;;;;;21.70;100172.00;;;;2062601;28;20302;-72
2023/08/09 02:57:13;;;;;;;1.90;1.23;;;;;21.70;100179.00;;;;2063632;28;20274;-72
2023/08/09 02:58:14;;;;;;;2.20;1.50;;;;;21.70;100172.00;;;;2062273;28;20207;-72
2023/08/09 02:59:14;;;;;;;2.20;1.23;;;;;21.70;100171.00;;;;2053876;28;20242;-72
2023/08/09 03:00:17;;;;;;;1.23;1.13;;;;;21.70;100176.00;;;;2063509;28;20241;-72
2023/08/09 03:01:17;;;;;;;1.60;1.17;;;;;21.70;100185.00;;;;2062895;28;20243;-72
2023/08/09 03:02:18;;;;;;;1.63;1.10;;;;;21.70;100186.00;;;;2062793;28;20203;-72
2023/08/09 03:03:18;;;;;;;1.93;1.30;;;;;21.70;100180.00;;;;2062105;28;20211;-72
2023/08/09 03:04:18;;;;;;;2.40;1.27;;;;;21.70;100187.00;;;;2053730;28;20219;-72
2023/08/09 03:05:19;;;;;;;1.80;1.30;;;;;21.70;100189.00;;;;2062746;28;20233;-72
2023/08/09 03:06:22;;;;;;;1.60;1.20;;;;;21.70;100171.00;;;;2062847;28;20203;-72
2023/08/09 03:07:22;;;;;;;1.63;1.15;;;;;21.70;100188.00;;;;2063373;28;20681;-72
2023/08/09 03:08:22;;;;;;;1.20;1.07;;;;;21.70;100199.00;;;;2062985;28;20226;-72
2023/08/09 03:09:23;;;;;;;1.90;1.00;;;;;21.70;100201.00;;;;2058720;28;20221;-72
2023/08/09 03:10:23;;;;;;;1.87;1.07;;;;;21.70;100202.00;;;;2070061;28;20222;-72
2023/08/09 03:11:24;;;;;;;1.67;1.30;;;;;21.70;100215.00;;;;2065649;28;20214;-73
2023/08/09 03:12:24;;;;;;;1.23;0.90;;;;;21.70;100214.00;;;;2063433;28;20211;-72
2023/08/09 03:13:25;;;;;;;1.47;0.93;;;;;21.70;100216.00;;;;2063113;28;20211;-72
2023/08/09 03:14:25;;;;;;;3.53;1.13;;;;;21.70;100214.00;;;;2053855;28;20210;-72
2023/08/09 03:15:25;;;;;;;1.43;0.90;;;;;21.70;100212.00;;;;2062548;28;20249;-72
2023/08/09 03:16:26;;;;;;;1.43;1.10;;;;;21.70;100211.00;;;;2063509;28;20250;-72
2023/08/09 03:17:26;;;;;;;1.50;1.00;;;;;21.70;100215.00;;;;2061957;28;20265;-72
2023/08/09 03:18:26;;;;;;;2.00;1.03;;;;;21.70;100207.00;;;;2062824;28;20218;-72
2023/08/09 03:19:27;;;;;;;1.60;1.03;;;;;21.70;100198.00;;;;2052958;28;20218;-72
2023/08/09 03:20:27;;;;;;;1.20;1.00;;;;;21.70;100205.00;;;;2062998;28;20246;-72
2023/08/09 03:21:27;;;;;;;1.67;1.27;;;;;21.70;100204.00;;;;2063502;28;20218;-72
2023/08/09 03:22:28;;;;;;;2.90;1.10;;;;;21.70;100164.00;;;;2062711;28;20269;-72
2023/08/09 03:23:28;;;;;;;1.50;0.97;;;;;21.70;100201.00;;;;2063484;28;20219;-72
2023/08/09 03:24:28;;;;;;;1.73;1.27;;;;;21.70;100214.00;;;;2053086;28;20237;-72
2023/08/09 03:25:31;;;;;;;1.57;1.10;;;;;21.70;100187.00;;;;2063184;28;20217;-72
2023/08/09 03:26:31;;;;;;;1.77;0.90;;;;;21.70;100214.00;;;;2062452;28;20225;-72
2023/08/09 03:27:31;;;;;;;1.13;0.90;;;;;21.70;100212.00;;;;2063303;28;20853;-72
2023/08/09 03:28:32;;;;;;;1.50;1.07;;;;;21.70;100208.00;;;;2063451;28;20203;-72
2023/08/09 03:29:32;;;;;;;2.40;1.17;;;;;21.70;100203.00;;;;2052267;28;20257;-72
2023/08/09 03:30:33;;;;;;;1.60;1.00;;;;;21.70;100201.00;;;;2062689;28;20207;-72
2023/08/09 03:31:33;;;;;;;1.20;1.00;;;;;21.70;100194.00;;;;2062290;28;20226;-72
2023/08/09 03:32:34;;;;;;;1.20;1.10;;;;;21.70;100207.00;;;;2066402;28;20643;-72
2023/08/09 03:33:35;;;;;;;1.40;1.00;;;;;21.70;100197.00;;;;2063143;28;20706;-72
2023/08/09 03:34:36;;;;;;;1.63;1.10;;;;;21.70;100219.00;;;;2052232;28;20214;-72
2023/08/09 03:35:36;;;;;;;1.40;1.00;;;;;21.70;100218.00;;;;2062300;28;20659;-72
2023/08/09 03:36:36;;;;;;;0.97;0.90;;;;;21.70;100218.00;;;;2062712;28;20561;-72
2023/08/09 03:37:37;;;;;;;1.30;1.03;;;;;21.70;100175.00;;;;2063390;28;20218;-72
2023/08/09 03:38:37;;;;;;;1.03;0.93;;;;;21.70;100208.00;;;;2063142;28;20266;-72
2023/08/09 03:39:37;;;;;;;2.13;1.10;;;;;21.70;100218.00;;;;2053758;28;20225;-72
2023/08/09 03:40:38;;;;;;;1.23;1.10;;;;;21.70;100188.00;;;;2063313;28;20215;-72
2023/08/09 03:41:38;;;;;;;1.10;0.90;;;;;21.70;100221.00;;;;2062515;28;20227;-72
2023/08/09 03:42:42;;;;;;;2.10;1.40;;;;;21.70;100223.00;;;;2069051;28;20953;-72
2023/08/09 03:43:42;;;;;;;2.17;0.90;;;;;21.70;100218.00;;;;2056764;28;20650;-72
2023/08/09 03:44:43;;;;;;;1.10;1.00;;;;;21.70;100224.00;;;;2052369;28;20259;-73
2023/08/09 03:45:43;;;;;;;1.33;0.97;;;;;21.70;100220.00;;;;2053779;28;20656;-72
2023/08/09 03:46:43;;;;;;;1.30;1.10;;;;;21.70;100226.00;;;;2062151;28;20223;-72
2023/08/09 03:47:44;;;;;;;1.43;1.27;;;;;21.70;100221.00;;;;2063119;28;20206;-72
2023/08/09 03:48:44;;;;;;;1.10;0.80;;;;;21.70;100227.00;;;;2053141;28;20226;-72
2023/08/09 03:49:44;;;;;;;1.90;1.40;;;;;21.70;100227.00;;;;2070806;28;20233;-72
2023/08/09 03:50:45;;;;;;;1.77;1.27;;;;;21.70;100229.00;;;;2063781;28;20732;-72
2023/08/09 03:51:45;;;;;;;1.10;1.00;;;;;21.60;100229.00;;;;2061697;28;20230;-72
2023/08/09 03:52:45;;;;;;;1.30;1.20;;;;;21.70;100232.00;;;;2062442;28;20223;-72
2023/08/09 03:53:46;;;;;;;1.37;1.27;;;;;21.70;100235.00;;;;2053684;28;20219;-72
2023/08/09 03:54:47;;;;;;;1.30;1.00;;;;;21.70;100235.00;;;;2062772;28;20225;-72
2023/08/09 03:55:47;;;;;;;1.63;1.13;;;;;21.70;100228.00;;;;2062359;28;20329;-72
2023/08/09 03:56:48;;;;;;;1.43;1.33;;;;;21.70;100231.00;;;;2062532;28;20269;-72
2023/08/09 03:57:48;;;;;;;1.70;1.20;;;;;21.70;100234.00;;;;2062609;28;20265;-72
2023/08/09 03:58:49;;;;;;;1.20;1.10;;;;;21.70;100234.00;;;;2053781;28;20230;-72
2023/08/09 03:59:52;;;;;;;2.23;1.50;;;;;21.70;100238.00;;;;2062602;28;20549;-72
2023/08/09 04:00:53;;;;;;;1.35;1.23;;;;;21.70;100236.00;;;;2063266;28;20234;-72
2023/08/09 04:01:53;;;;;;;1.73;1.50;;;;;21.70;100241.00;;;;2063201;28;20214;-72
2023/08/09 04:02:54;;;;;;;1.10;0.97;;;;;21.70;100210.00;;;;2063347;28;20266;-72
2023/08/09 04:03:54;;;;;;;1.47;0.93;;;;;21.70;100252.00;;;;2053481;28;20225;-72
2023/08/09 04:04:55;;;;;;;2.90;1.50;;;;;21.70;100225.00;;;;2062004;28;20450;-72
2023/08/09 04:05:55;;;;;;;1.50;1.20;;;;;21.70;100229.00;;;;2063295;28;20242;-72
2023/08/09 04:06:56;;;;;;;2.77;1.50;;;;;21.70;100252.00;;;;2062374;28;20227;-72
2023/08/09 04:07:57;;;;;;;1.80;1.03;;;;;21.70;100230.00;;;;2063187;28;20238;-72
2023/08/09 04:08:57;;;;;;;1.50;1.38;;;;;21.70;100270.00;;;;2052806;28;20301;-72
2023/08/09 04:09:59;;;;;;;1.48;1.20;;;;;21.70;100262.00;;;;2063232;28;20314;-72
2023/08/09 04:10:59;;;;;;;1.90;1.60;;;;;21.70;100247.00;;;;2067308;28;20697;-72
2023/08/09 04:12:00;;;;;;;1.63;1.40;;;;;21.70;100267.00;;;;2062672;28;20725;-72
2023/08/09 04:13:00;;;;;;;1.53;1.27;;;;;21.60;100267.00;;;;2054577;28;20215;-72
2023/08/09 04:14:00;;;;;;;1.47;1.23;;;;;21.60;100267.00;;;;2036406;28;20232;-72
2023/08/09 04:15:02;;;;;;;1.70;1.20;;;;;21.70;100270.00;;;;2062205;28;20242;-72
2023/08/09 04:16:03;;;;;;;3.88;1.30;;;;;21.70;100267.00;;;;2053652;28;20215;-72
2023/08/09 04:17:04;;;;;;;1.70;1.60;;;;;21.50;100271.00;;;;2055405;28;20215;-72
2023/08/09 04:18:05;;;;;;;2.15;1.40;;;;;21.70;100277.00;;;;2063992;28;20214;-72
2023/08/09 04:19:05;;;;;;;1.60;1.17;;;;;21.70;100278.00;;;;2054430;28;20231;-72
2023/08/09 04:20:09;;;;;;;1.37;1.27;;;;;21.70;100275.00;;;;2064135;28;20257;-72
2023/08/09 04:21:10;;;;;;;1.48;1.27;;;;;21.70;100275.00;;;;2063241;28;20261;-72
2023/08/09 04:22:10;;;;;;;2.27;1.60;;;;;21.60;100280.00;;;;2063957;28;20211;-72
2023/08/09 04:23:12;;;;;;;2.23;1.50;;;;;21.70;100277.00;;;;2063397;28;20830;-72
2023/08/09 04:24:12;;;;;;;2.40;1.45;;;;;21.60;100273.00;;;;2055039;28;20246;-72
2023/08/09 04:25:13;;;;;;;1.90;1.50;;;;;21.70;100271.00;;;;2064424;28;20722;-72
2023/08/09 04:26:13;;;;;;;3.20;1.40;;;;;21.70;100269.00;;;;2063243;28;20726;-72
2023/08/09 04:27:13;;;;;;;1.20;1.00;;;;;21.70;100266.00;;;;2064071;28;20714;-72
2023/08/09 04:28:14;;;;;;;2.70;1.30;;;;;21.70;100270.00;;;;2063886;28;20214;-72
2023/08/09 04:29:14;;;;;;;1.70;1.60;;;;;21.70;100277.00;;;;2054125;28;20229;-72
2023/08/09 04:30:15;;;;;;;2.50;1.60;;;;;21.60;100272.00;;;;2063037;28;20211;-72
2023/08/09 04:31:15;;;;;;;2.63;1.50;;;;;21.60;100274.00;;;;2066176;28;20233;-72
2023/08/09 04:32:15;;;;;;;1.93;1.40;;;;;21.70;100278.00;;;;2066039;28;20954;-72
2023/08/09 04:33:16;;;;;;;2.23;1.90;;;;;21.70;100272.00;;;;2070044;28;20229;-72
2023/08/09 04:34:17;;;;;;;1.85;1.55;;;;;21.70;100280.00;;;;2054041;28;20234;-72
2023/08/09 04:35:18;;;;;;;1.80;1.50;;;;;21.60;100276.00;;;;2062900;28;20273;-72
2023/08/09 04:36:18;;;;;;;1.50;1.40;;;;;21.70;100270.00;;;;2064669;28;20215;-72
2023/08/09 04:37:18;;;;;;;1.50;1.30;;;;;21.60;100274.00;;;;2063865;28;21338;-72
2023/08/09 04:38:19;;;;;;;2.37;1.60;;;;;21.60;100279.00;;;;2064395;28;20218;-72
2023/08/09 04:39:20;;;;;;;1.87;1.77;;;;;21.60;100283.00;;;;2054823;28;20215;-72
2023/08/09 04:40:20;;;;;;;2.67;1.90;;;;;21.60;100283.00;;;;2062240;28;20848;-72
2023/08/09 04:41:20;;;;;;;1.33;1.20;;;;;21.60;100280.00;;;;2063797;28;20199;-72
2023/08/09 04:42:21;;;;;;;2.23;1.63;;;;;21.70;100286.00;;;;2066736;28;20238;-72
2023/08/09 04:43:21;;;;;;;1.80;1.70;;;;;21.70;100279.00;;;;2068426;28;20226;-72
2023/08/09 04:44:22;;;;;;;1.80;1.57;;;;;21.60;100284.00;;;;2054133;28;20226;-72
2023/08/09 04:45:24;;;;;;;1.67;1.50;;;;;21.60;100285.00;;;;2064295;28;20219;-72
2023/08/09 04:46:24;;;;;;;3.75;1.50;;;;;21.60;100288.00;;;;2063780;28;20222;-72
2023/08/09 04:47:24;;;;;;;1.90;1.70;;;;;21.60;100288.00;;;;2063597;28;20658;-72
2023/08/09 04:48:26;;;;;;;1.70;1.40;;;;;21.60;100286.00;;;;2064294;28;20608;-72
2023/08/09 04:49:27;;;;;;;2.20;2.00;;;;;21.70;100265.00;;;;2055796;28;20605;-72
2023/08/09 04:50:27;;;;;;;2.10;1.90;;;;;21.70;100292.00;;;;2064661;28;20225;-72
2023/08/09 04:51:27;;;;;;;2.90;1.80;;;;;21.70;100288.00;;;;2063747;28;20329;-72
2023/08/09 04:52:28;;;;;;;1.93;1.77;;;;;21.60;100294.00;;;;2063685;28;20215;-72
2023/08/09 04:53:28;;;;;;;2.03;1.87;;;;;21.70;100290.00;;;;2063715;28;20219;-72
2023/08/09 04:54:29;;;;;;;2.20;1.77;;;;;21.60;100303.00;;;;2052932;28;20269;-72
2023/08/09 04:55:29;;;;;;;2.60;1.80;;;;;21.60;100299.00;;;;2064223;28;20223;-72
2023/08/09 04:56:30;;;;;;;2.33;1.60;;;;;21.60;100297.00;;;;2063532;28;20450;-72
2023/08/09 04:57:31;;;;;;;2.13;1.90;;;;;21.60;100301.00;;;;2063604;28;20238;-72
2023/08/09 04:58:31;;;;;;;2.30;2.10;;;;;21.60;100294.00;;;;2054900;28;20215;-72
2023/08/09 04:59:32;;;;;;;2.53;1.70;;;;;21.60;100298.00;;;;2053422;28;20708;-72
2023/08/09 05:00:32;;;;;;;1.70;1.60;;;;;21.60;100288.00;;;;2064334;28;20242;-72